createdAt,value
2022-09-28T00:01:25.435Z,10.80
2022-09-28T00:03:57.584Z,10.80
2022-09-28T00:06:30.577Z,10.80
2022-09-28T00:08:58.157Z,10.80
2022-09-28T00:11:29.237Z,10.80
2022-09-28T00:14:02.394Z,10.80
2022-09-28T00:16:36.643Z,10.80
2022-09-28T00:19:05.017Z,10.70
2022-09-28T00:21:36.241Z,10.70
2022-09-28T00:24:25.234Z,10.70
2022-09-28T00:26:58.063Z,10.70
2022-09-28T00:29:34.522Z,10.70
2022-09-28T00:32:10.048Z,10.70
2022-09-28T00:34:45.887Z,10.70
2022-09-28T00:37:15.088Z,10.60
2022-09-28T00:39:43.471Z,10.60
2022-09-28T00:42:17.809Z,10.60
2022-09-28T00:44:49.232Z,10.50
2022-09-28T00:47:41.260Z,10.60
2022-09-28T00:50:18.842Z,10.60
2022-09-28T00:53:17.499Z,10.50
2022-09-28T00:55:59.450Z,10.50
2022-09-28T00:58:33.703Z,10.50
2022-09-28T01:01:01.389Z,10.40
2022-09-28T01:03:29.318Z,10.40
2022-09-28T01:06:02.302Z,10.30
2022-09-28T01:08:33.099Z,10.30
2022-09-28T01:11:01.052Z,10.30
2022-09-28T01:13:31.512Z,10.30
2022-09-28T01:16:38.534Z,10.30
2022-09-28T01:19:42.829Z,10.30
2022-09-28T01:22:51.796Z,10.20
2022-09-28T01:25:34.783Z,10.20
2022-09-28T01:28:09.062Z,10.20
2022-09-28T01:31:04.171Z,10.20
2022-09-28T01:33:42.234Z,10.20
2022-09-28T01:36:24.018Z,10.10
2022-09-28T01:39:36.945Z,10.10
2022-09-28T01:42:11.963Z,10.10
2022-09-28T01:44:44.458Z,10.10
2022-09-28T01:47:15.409Z,10.00
2022-09-28T01:49:50.691Z,10.00
2022-09-28T01:52:41.641Z,10.00
2022-09-28T01:55:39.211Z,10.00
2022-09-28T01:58:40.326Z,9.90
2022-09-28T02:01:16.509Z,9.90
2022-09-28T02:04:02.286Z,9.80
2022-09-28T02:06:41.277Z,9.80
2022-09-28T02:09:14.034Z,9.80
2022-09-28T02:11:50.405Z,9.80
2022-09-28T02:14:19.795Z,9.70
2022-09-28T02:16:56.196Z,9.80
2022-09-28T02:19:29.641Z,9.80
2022-09-28T02:22:23.518Z,9.80
2022-09-28T02:25:24.318Z,9.80
2022-09-28T02:28:01.812Z,9.80
2022-09-28T02:30:35.745Z,9.80
2022-09-28T02:33:28.257Z,9.80
2022-09-28T02:35:57.570Z,9.80
2022-09-28T02:38:24.858Z,9.80
2022-09-28T02:41:08.651Z,9.80
2022-09-28T02:44:05.812Z,9.80
2022-09-28T02:46:45.151Z,9.80
2022-09-28T02:49:37.990Z,9.80
2022-09-28T02:52:36.243Z,9.90
2022-09-28T02:55:38.948Z,9.90
2022-09-28T02:58:59.376Z,9.90
2022-09-28T03:02:07.021Z,9.90
2022-09-28T03:04:48.957Z,9.90
2022-09-28T03:07:37.333Z,10.00
2022-09-28T03:10:27.016Z,10.00
2022-09-28T03:12:55.268Z,10.00
2022-09-28T03:15:32.221Z,10.00
2022-09-28T03:18:00.166Z,10.00
2022-09-28T03:20:29.502Z,10.00
2022-09-28T03:23:22.676Z,10.00
2022-09-28T03:25:44.175Z,10.00
2022-09-28T03:28:11.292Z,10.00
2022-09-28T03:30:43.066Z,10.00
2022-09-28T03:33:13.032Z,10.00
2022-09-28T03:35:40.204Z,10.00
2022-09-28T03:38:07.807Z,10.00
2022-09-28T03:40:34.975Z,10.00
2022-09-28T03:43:02.205Z,10.00
2022-09-28T03:45:29.557Z,10.10
2022-09-28T03:48:00.307Z,10.10
2022-09-28T03:50:27.496Z,10.10
2022-09-28T03:52:54.583Z,10.10
2022-09-28T03:55:22.011Z,10.10
2022-09-28T03:57:56.047Z,10.10
2022-09-28T04:00:23.988Z,10.10
2022-09-28T04:02:51.129Z,10.10
2022-09-28T04:05:18.188Z,10.20
2022-09-28T04:07:48.313Z,10.20
2022-09-28T04:10:15.580Z,10.20
2022-09-28T04:12:42.634Z,10.30
2022-09-28T04:15:10.652Z,10.30
2022-09-28T04:17:40.247Z,10.30
2022-09-28T04:20:09.012Z,10.30
2022-09-28T04:22:37.702Z,10.40
2022-09-28T04:25:05.454Z,10.40
2022-09-28T04:27:51.551Z,10.40
2022-09-28T04:30:18.897Z,10.40
2022-09-28T04:32:49.143Z,10.40
2022-09-28T04:35:16.281Z,10.40
2022-09-28T04:37:43.492Z,10.40
2022-09-28T04:40:13.380Z,10.30
2022-09-28T04:42:40.499Z,10.30
2022-09-28T04:45:08.588Z,10.30
2022-09-28T04:47:35.697Z,10.30
2022-09-28T04:50:06.524Z,10.20
2022-09-28T04:52:37.259Z,10.20
2022-09-28T04:55:06.436Z,10.20
2022-09-28T04:57:36.233Z,10.20
2022-09-28T05:00:07.297Z,10.20
2022-09-28T05:02:34.389Z,10.20
2022-09-28T05:05:01.439Z,10.20
2022-09-28T05:07:28.830Z,10.20
2022-09-28T05:10:01.547Z,10.20
2022-09-28T05:12:30.070Z,10.20
2022-09-28T05:15:00.795Z,10.20
2022-09-28T05:17:28.172Z,10.20
2022-09-28T05:19:59.164Z,10.20
2022-09-28T05:22:26.440Z,10.20
2022-09-28T05:24:54.978Z,10.20
2022-09-28T05:27:24.805Z,10.20
2022-09-28T05:29:58.227Z,10.20
2022-09-28T05:32:25.338Z,10.10
2022-09-28T05:34:52.429Z,10.10
2022-09-28T05:37:25.720Z,10.10
2022-09-28T05:39:52.853Z,10.10
2022-09-28T05:42:23.243Z,10.10
2022-09-28T05:44:50.505Z,10.10
2022-09-28T05:47:20.919Z,10.10
2022-09-28T05:49:47.933Z,10.00
2022-09-28T05:52:15.047Z,10.00
2022-09-28T05:54:42.123Z,10.10
2022-09-28T05:57:09.204Z,10.00
2022-09-28T05:59:39.803Z,10.00
2022-09-28T06:02:07.647Z,10.00
2022-09-28T06:04:38.081Z,10.00
2022-09-28T06:07:05.219Z,10.10
2022-09-28T06:09:35.031Z,10.10
2022-09-28T06:12:02.150Z,10.10
2022-09-28T06:14:29.641Z,10.20
2022-09-28T06:17:00.383Z,10.10
2022-09-28T06:19:27.800Z,10.20
2022-09-28T06:21:54.965Z,10.20
2022-09-28T06:24:24.857Z,10.20
2022-09-28T06:26:52.133Z,10.30
2022-09-28T06:29:19.860Z,10.30
2022-09-28T06:31:47.621Z,10.40
2022-09-28T06:34:14.949Z,10.40
2022-09-28T06:36:42.053Z,10.40
2022-09-28T06:39:09.434Z,10.50
2022-09-28T06:41:40.136Z,10.50
2022-09-28T06:44:07.730Z,10.60
2022-09-28T06:46:44.654Z,10.60
2022-09-28T06:49:14.160Z,10.60
2022-09-28T06:51:43.185Z,10.70
2022-09-28T06:54:19.619Z,10.80
2022-09-28T06:56:49.734Z,10.90
2022-09-28T06:59:16.730Z,10.90
2022-09-28T07:01:47.397Z,11.00
2022-09-28T07:04:14.496Z,11.10
2022-09-28T07:06:48.671Z,11.20
2022-09-28T07:09:30.042Z,11.20
2022-09-28T07:12:04.879Z,11.30
2022-09-28T07:14:47.466Z,11.40
2022-09-28T07:17:15.354Z,11.50
2022-09-28T07:19:42.651Z,11.60
2022-09-28T07:22:18.449Z,11.70
2022-09-28T07:24:49.555Z,11.70
2022-09-28T07:27:17.239Z,11.90
2022-09-28T07:29:44.334Z,11.90
2022-09-28T07:32:11.425Z,12.00
2022-09-28T07:34:44.591Z,12.10
2022-09-28T07:37:18.942Z,12.20
2022-09-28T07:40:05.297Z,12.30
2022-09-28T07:42:32.577Z,12.30
2022-09-28T07:44:59.755Z,12.40
2022-09-28T07:47:32.307Z,12.40
2022-09-28T07:50:01.822Z,12.50
2022-09-28T07:52:35.097Z,12.50
2022-09-28T07:55:07.369Z,12.60
2022-09-28T07:57:35.441Z,12.70
2022-09-28T08:00:05.543Z,12.80
2022-09-28T08:02:33.996Z,12.90
2022-09-28T08:05:02.345Z,12.90
2022-09-28T08:07:29.416Z,13.00
2022-09-28T08:09:56.481Z,13.00
2022-09-28T08:12:23.659Z,13.10
2022-09-28T08:14:52.813Z,13.10
2022-09-28T08:17:20.368Z,13.10
2022-09-28T08:20:09.901Z,13.10
2022-09-28T08:22:40.652Z,13.10
2022-09-28T08:25:14.408Z,13.10
2022-09-28T08:27:41.516Z,13.20
2022-09-28T08:30:09.746Z,13.20
2022-09-28T08:32:37.014Z,13.20
2022-09-28T08:35:07.733Z,13.20
2022-09-28T08:37:34.759Z,13.20
2022-09-28T08:40:02.107Z,13.20
2022-09-28T08:42:42.318Z,13.20
2022-09-28T08:45:19.540Z,13.20
2022-09-28T08:48:56.913Z,13.30
2022-09-28T08:51:50.216Z,13.30
2022-09-28T08:54:48.872Z,13.30
2022-09-28T08:57:31.014Z,13.40
2022-09-28T09:00:09.586Z,13.50
2022-09-28T09:02:48.793Z,13.60
2022-09-28T09:05:24.745Z,13.80
2022-09-28T09:08:39.476Z,13.90
2022-09-28T09:11:48.863Z,14.00
2022-09-28T09:14:56.670Z,14.30
2022-09-28T09:17:35.557Z,14.40
2022-09-28T09:20:19.444Z,14.50
2022-09-28T09:23:20.308Z,14.50
2022-09-28T09:25:53.210Z,14.60
2022-09-28T09:29:10.178Z,14.70
2022-09-28T09:31:50.749Z,14.80
2022-09-28T09:34:34.433Z,14.90
2022-09-28T09:37:40.353Z,15.00
2022-09-28T09:40:32.406Z,15.10
2022-09-28T09:43:58.739Z,15.20
2022-09-28T09:46:55.865Z,15.30
2022-09-28T09:49:43.161Z,15.40
2022-09-28T09:52:18.536Z,15.60
2022-09-28T09:55:14.690Z,15.70
2022-09-28T09:57:51.869Z,15.80
2022-09-28T10:00:19.673Z,16.00
2022-09-28T10:02:52.052Z,16.10
2022-09-28T10:05:27.826Z,16.30
2022-09-28T10:08:09.363Z,16.40
2022-09-28T10:10:51.936Z,16.60
2022-09-28T10:13:19.127Z,16.70
2022-09-28T10:15:47.912Z,17.00
2022-09-28T10:18:19.130Z,17.30
2022-09-28T10:20:49.787Z,17.40
2022-09-28T10:23:28.238Z,17.50
2022-09-28T10:26:15.770Z,17.70
2022-09-28T10:29:02.132Z,17.90
2022-09-28T10:31:46.454Z,18.00
2022-09-28T10:34:27.541Z,18.00
2022-09-28T10:37:09.010Z,18.10
2022-09-28T10:39:53.430Z,18.10
2022-09-28T10:42:28.397Z,18.30
2022-09-28T10:45:07.209Z,18.30
2022-09-28T10:47:36.041Z,18.40
2022-09-28T10:50:14.593Z,18.30
2022-09-28T10:52:45.805Z,18.30
2022-09-28T10:55:21.934Z,18.30
2022-09-28T10:57:49.274Z,18.30
2022-09-28T11:00:45.025Z,18.30
2022-09-28T11:03:49.745Z,18.20
2022-09-28T11:06:26.189Z,18.20
2022-09-28T11:08:56.212Z,18.00
2022-09-28T11:11:24.773Z,17.90
2022-09-28T11:14:01.252Z,17.80
2022-09-28T11:16:34.260Z,17.70
2022-09-28T11:19:19.534Z,17.60
2022-09-28T11:21:46.867Z,17.50
2022-09-28T11:24:24.507Z,17.50
2022-09-28T11:27:00.270Z,17.50
2022-09-28T11:29:36.342Z,17.50
2022-09-28T11:32:05.479Z,17.50
2022-09-28T11:34:58.583Z,17.40
2022-09-28T11:37:31.050Z,17.20
2022-09-28T11:40:28.919Z,17.10
2022-09-28T11:43:36.195Z,17.10
2022-09-28T11:46:54.120Z,17.10
2022-09-28T11:49:38.360Z,16.90
2022-09-28T11:52:30.937Z,17.10
2022-09-28T11:55:22.968Z,17.30
2022-09-28T11:58:08.991Z,17.30
2022-09-28T12:00:49.864Z,17.40
2022-09-28T12:03:29.476Z,17.40
2022-09-28T12:06:09.334Z,17.50
2022-09-28T12:08:46.959Z,17.60
2022-09-28T12:11:32.561Z,17.70
2022-09-28T12:14:06.831Z,17.70
2022-09-28T12:17:04.660Z,17.90
2022-09-28T12:19:48.471Z,17.90
2022-09-28T12:22:36.038Z,18.00
2022-09-28T12:25:16.193Z,18.00
2022-09-28T12:28:01.112Z,17.90
2022-09-28T12:30:36.093Z,18.00
2022-09-28T12:33:13.397Z,17.90
2022-09-28T12:36:01.908Z,17.80
2022-09-28T12:38:45.970Z,17.70
2022-09-28T12:42:06.443Z,17.70
2022-09-28T12:45:27.745Z,17.70
2022-09-28T12:48:36.252Z,17.70
2022-09-28T12:51:48.725Z,17.70
2022-09-28T12:54:27.547Z,17.70
2022-09-28T12:57:38.160Z,17.70
2022-09-28T13:00:32.256Z,17.70
2022-09-28T13:03:37.206Z,17.70
2022-09-28T13:06:22.133Z,17.80
2022-09-28T13:09:10.257Z,17.80
2022-09-28T13:12:19.753Z,17.80
2022-09-28T13:15:32.989Z,17.80
2022-09-28T13:18:24.615Z,17.80
2022-09-28T13:21:07.552Z,17.80
2022-09-28T13:23:47.390Z,17.90
2022-09-28T13:26:28.313Z,17.90
2022-09-28T13:29:05.019Z,18.00
2022-09-28T13:31:50.602Z,18.10
2022-09-28T13:34:35.322Z,18.20
2022-09-28T13:37:16.914Z,18.30
2022-09-28T13:39:52.219Z,18.40
2022-09-28T13:42:22.746Z,18.50
2022-09-28T13:45:12.119Z,18.50
2022-09-28T13:47:55.075Z,18.60
2022-09-28T13:51:02.634Z,18.80
2022-09-28T13:53:55.478Z,18.90
2022-09-28T13:56:35.042Z,19.10
2022-09-28T13:59:29.765Z,19.30
2022-09-28T14:02:07.298Z,19.30
2022-09-28T14:04:58.892Z,19.20
2022-09-28T14:07:34.545Z,19.10
2022-09-28T14:10:43.709Z,18.90
2022-09-28T14:13:11.027Z,18.80
2022-09-28T14:15:45.135Z,18.70
2022-09-28T14:18:33.207Z,18.60
2022-09-28T14:21:31.100Z,18.40
2022-09-28T14:24:30.286Z,18.30
2022-09-28T14:27:03.419Z,18.20
2022-09-28T14:29:36.293Z,18.20
2022-09-28T14:32:08.971Z,18.10
2022-09-28T14:34:41.590Z,18.10
2022-09-28T14:37:51.202Z,18.00
2022-09-28T14:40:49.914Z,18.00
2022-09-28T14:43:37.079Z,17.90
2022-09-28T14:46:17.069Z,17.90
2022-09-28T14:48:47.989Z,17.90
2022-09-28T14:51:27.141Z,17.90
2022-09-28T14:54:02.706Z,17.80
2022-09-28T14:56:38.973Z,17.80
2022-09-28T14:59:17.791Z,17.80
2022-09-28T15:02:07.857Z,17.80
2022-09-28T15:04:45.913Z,17.80
2022-09-28T15:07:25.522Z,17.90
2022-09-28T15:09:55.756Z,17.90
2022-09-28T15:12:27.875Z,17.90
2022-09-28T15:15:08.523Z,17.90
2022-09-28T15:17:40.576Z,17.90
2022-09-28T15:20:26.517Z,17.90
2022-09-28T15:22:59.614Z,17.80
2022-09-28T15:25:32.698Z,17.80
2022-09-28T15:28:22.169Z,17.70
2022-09-28T15:30:49.367Z,17.60
2022-09-28T15:33:50.964Z,17.50
2022-09-28T15:36:34.081Z,17.40
2022-09-28T15:39:12.413Z,17.30
2022-09-28T15:41:41.220Z,17.30
2022-09-28T15:44:18.476Z,17.20
2022-09-28T15:46:49.041Z,17.20
2022-09-28T15:49:45.205Z,17.20
2022-09-28T15:52:38.865Z,17.20
2022-09-28T15:55:28.920Z,17.10
2022-09-28T15:58:20.592Z,17.10
2022-09-28T16:00:51.688Z,17.10
2022-09-28T16:03:28.745Z,17.10
2022-09-28T16:06:10.380Z,17.10
2022-09-28T16:08:46.210Z,17.00
2022-09-28T16:11:31.490Z,17.00
2022-09-28T16:14:21.027Z,16.90
2022-09-28T16:16:53.161Z,16.90
2022-09-28T16:19:36.623Z,16.80
2022-09-28T16:22:16.466Z,16.70
2022-09-28T16:24:58.814Z,16.70
2022-09-28T16:27:55.527Z,16.60
2022-09-28T16:30:32.409Z,16.50
2022-09-28T16:33:26.179Z,16.50
2022-09-28T16:36:03.279Z,16.40
2022-09-28T16:38:30.840Z,16.30
2022-09-28T16:41:02.433Z,16.30
2022-09-28T16:43:36.653Z,16.20
2022-09-28T16:46:21.290Z,16.20
2022-09-28T16:48:50.357Z,16.10
2022-09-28T16:51:20.131Z,16.10
2022-09-28T16:54:06.983Z,16.10
2022-09-28T16:56:37.602Z,16.00
2022-09-28T16:59:04.774Z,16.00
2022-09-28T17:01:32.092Z,15.90
2022-09-28T17:03:59.213Z,16.00
2022-09-28T17:06:30.029Z,15.80
2022-09-28T17:08:58.761Z,15.80
2022-09-28T17:11:26.090Z,15.80
2022-09-28T17:13:58.887Z,15.70
2022-09-28T17:16:59.927Z,15.80
2022-09-28T17:19:24.536Z,15.70
2022-09-28T17:21:54.290Z,15.70
2022-09-28T17:24:22.658Z,15.60
2022-09-28T17:26:52.042Z,15.60
2022-09-28T17:29:23.724Z,15.60
2022-09-28T17:31:52.123Z,15.60
2022-09-28T17:34:20.771Z,15.50
2022-09-28T17:36:49.134Z,15.50
2022-09-28T17:39:19.151Z,15.50
2022-09-28T17:41:46.973Z,15.50
2022-09-28T17:44:16.378Z,15.40
2022-09-28T17:46:48.681Z,15.40
2022-09-28T17:49:17.452Z,15.40
2022-09-28T17:51:45.023Z,15.40
2022-09-28T17:54:13.728Z,15.40
2022-09-28T17:56:42.680Z,15.30
2022-09-28T17:59:16.236Z,15.30
2022-09-28T18:01:43.933Z,15.30
2022-09-28T18:04:27.891Z,15.30
2022-09-28T18:07:00.756Z,15.20
2022-09-28T18:09:27.918Z,15.20
2022-09-28T18:12:03.984Z,15.10
2022-09-28T18:14:31.154Z,15.10
2022-09-28T18:16:58.377Z,15.10
2022-09-28T18:19:32.166Z,15.00
2022-09-28T18:21:59.752Z,15.10
2022-09-28T18:24:27.027Z,15.00
2022-09-28T18:26:54.166Z,15.00
2022-09-28T18:29:21.298Z,15.00
2022-09-28T18:31:48.896Z,15.00
2022-09-28T18:34:16.113Z,15.00
2022-09-28T18:36:43.440Z,15.00
2022-09-28T18:39:13.408Z,15.00
2022-09-28T18:41:41.691Z,14.90
2022-09-28T18:44:09.669Z,14.90
2022-09-28T18:46:42.680Z,14.90
2022-09-28T18:49:13.511Z,14.90
2022-09-28T18:51:43.718Z,15.00
2022-09-28T18:54:10.894Z,15.00
2022-09-28T18:56:38.689Z,14.90
2022-09-28T18:59:12.358Z,14.90
2022-09-28T19:01:41.887Z,14.90
2022-09-28T19:04:11.064Z,14.90
2022-09-28T19:06:44.467Z,14.90
2022-09-28T19:09:17.557Z,14.90
2022-09-28T19:11:44.886Z,14.90
2022-09-28T19:14:16.403Z,14.90
2022-09-28T19:16:45.338Z,14.80
2022-09-28T19:19:15.814Z,14.80
2022-09-28T19:21:46.314Z,14.80
2022-09-28T19:24:19.414Z,14.90
2022-09-28T19:26:47.138Z,14.80
2022-09-28T19:29:15.843Z,14.80
2022-09-28T19:31:43.557Z,14.80
2022-09-28T19:34:13.490Z,14.80
2022-09-28T19:36:41.795Z,14.80
2022-09-28T19:39:13.284Z,14.70
2022-09-28T19:41:44.159Z,14.70
2022-09-28T19:44:25.270Z,14.70
2022-09-28T19:47:04.497Z,14.70
2022-09-28T19:49:37.018Z,14.70
2022-09-28T19:52:15.801Z,14.70
2022-09-28T19:54:56.785Z,14.60
2022-09-28T19:57:28.067Z,14.60
2022-09-28T20:00:01.824Z,14.60
2022-09-28T20:02:34.823Z,14.60
2022-09-28T20:05:02.813Z,14.60
2022-09-28T20:07:34.794Z,14.50
2022-09-28T20:10:01.980Z,14.50
2022-09-28T20:12:29.244Z,14.50
2022-09-28T20:14:56.248Z,14.50
2022-09-28T20:17:23.453Z,14.50
2022-09-28T20:19:51.863Z,14.40
2022-09-28T20:22:20.057Z,14.40
2022-09-28T20:24:47.228Z,14.40
2022-09-28T20:27:17.469Z,14.40
2022-09-28T20:29:44.806Z,14.40
2022-09-28T20:32:12.450Z,14.30
2022-09-28T20:34:42.643Z,14.30
2022-09-28T20:37:09.778Z,14.30
2022-09-28T20:39:38.597Z,14.20
2022-09-28T20:42:08.694Z,14.20
2022-09-28T20:44:35.807Z,14.20
2022-09-28T20:47:02.928Z,14.20
2022-09-28T20:49:33.397Z,14.10
2022-09-28T20:52:01.157Z,14.10
2022-09-28T20:54:31.613Z,14.00
2022-09-28T20:57:01.279Z,14.00
2022-09-28T20:59:29.060Z,14.00
2022-09-28T21:01:56.360Z,14.00
2022-09-28T21:04:27.110Z,14.00
2022-09-28T21:06:57.408Z,14.00
2022-09-28T21:09:30.054Z,13.90
2022-09-28T21:11:57.957Z,13.90
2022-09-28T21:14:28.695Z,13.90
2022-09-28T21:16:56.252Z,13.90
2022-09-28T21:19:28.470Z,13.90
2022-09-28T21:21:55.609Z,13.90
2022-09-28T21:24:22.744Z,13.80
2022-09-28T21:26:53.076Z,13.80
2022-09-28T21:29:20.171Z,13.80
2022-09-28T21:31:50.546Z,13.70
2022-09-28T21:34:21.219Z,13.70
2022-09-28T21:36:51.347Z,13.80
2022-09-28T21:39:20.280Z,13.80
2022-09-28T21:41:47.446Z,13.70
2022-09-28T21:44:14.591Z,13.70
2022-09-28T21:46:42.120Z,13.70
2022-09-28T21:49:10.834Z,13.70
2022-09-28T21:51:38.198Z,13.70
2022-09-28T21:54:05.809Z,13.60
2022-09-28T21:56:33.039Z,13.60
2022-09-28T21:59:01.381Z,13.60
2022-09-28T22:01:34.677Z,13.60
2022-09-28T22:04:02.101Z,13.60
2022-09-28T22:06:29.228Z,13.60
2022-09-28T22:08:59.773Z,13.60
2022-09-28T22:11:30.414Z,13.60
2022-09-28T22:13:59.745Z,13.60
2022-09-28T22:16:30.385Z,13.50
2022-09-28T22:18:59.180Z,13.50
2022-09-28T22:21:32.749Z,13.50
2022-09-28T22:24:06.513Z,13.40
2022-09-28T22:26:38.287Z,13.40
2022-09-28T22:29:09.064Z,13.40
2022-09-28T22:31:40.397Z,13.40
2022-09-28T22:34:10.916Z,13.30
2022-09-28T22:36:38.702Z,13.30
2022-09-28T22:39:06.553Z,13.30
2022-09-28T22:41:39.919Z,13.30
2022-09-28T22:44:10.549Z,13.30
2022-09-28T22:46:37.640Z,13.30
2022-09-28T22:49:12.269Z,13.20
2022-09-28T22:51:40.458Z,13.20
2022-09-28T22:54:07.501Z,13.20
2022-09-28T22:56:34.531Z,13.10
2022-09-28T22:59:05.161Z,13.10
2022-09-28T23:01:32.227Z,13.10
2022-09-28T23:04:09.580Z,13.10
2022-09-28T23:06:36.841Z,13.10
2022-09-28T23:09:04.134Z,13.10
2022-09-28T23:11:31.411Z,13.00
2022-09-28T23:13:59.617Z,13.00
2022-09-28T23:16:36.072Z,12.90
2022-09-28T23:19:06.004Z,12.90
2022-09-28T23:21:33.243Z,12.90
2022-09-28T23:24:01.676Z,12.90
2022-09-28T23:26:34.212Z,12.90
2022-09-28T23:29:05.816Z,12.90
2022-09-28T23:31:33.859Z,12.80
2022-09-28T23:34:06.762Z,12.80
2022-09-28T23:36:37.055Z,12.80
2022-09-28T23:39:04.936Z,12.80
2022-09-28T23:41:38.054Z,12.70
2022-09-28T23:44:11.657Z,12.70
2022-09-28T23:46:38.897Z,12.70
2022-09-28T23:49:05.991Z,12.60
2022-09-28T23:51:33.044Z,12.60
2022-09-28T23:54:00.161Z,12.60
2022-09-28T23:56:27.388Z,12.60
2022-09-28T23:58:54.414Z,12.50
